Terminal Aerodrome Forecast
Issued by NWS

Home | Current Version | Previous Version | Text Only | Print | Product List | Glossary On
Versions: 1 2 3 4 5 6 7 8 9 10 11 12
000
FTUS45 KTFX 201120
TAFHVR
TAF
KHVR 201120Z 2012/2112 10011KT P6SM SCT100
     FM202000 21011G20KT P6SM SKC
     FM202300 30016G24KT P6SM SCT100
     FM210500 25011KT P6SM SKC=

USA.gov is the U.S. government's official web portal to all federal, state and local government web resources and services.